Terminal Aerodrome Forecast
Issued by NWS

Home | Current Version | Previous Version | Text Only | Print | Product List | Glossary On
Versions: 1 2 3 4 5 6 7 8 9 10 11 12 13 14 15 16 17 18 19 20 21
545
FTUS43 KILX 251316 AAA
TAFDEC
TAF AMD
KDEC 251316Z 2513/2612 25012KT P6SM SCT020
     FM251500 25014G22KT P6SM SKC
     FM260000 23005KT P6SM SKC=

USA.gov is the U.S. government's official web portal to all federal, state and local government web resources and services.